sensor_id;sensor_type;location;lat;lon;timestamp;P1;durP1;ratioP1;P2;durP2;ratioP2
45366;SDS011;31100;55.848;37.636;2023-02-28T00:01:31;12.55;;;6.30;;
45366;SDS011;31100;55.848;37.636;2023-02-28T00:03:57;12.35;;;6.10;;
45366;SDS011;31100;55.848;37.636;2023-02-28T00:06:23;11.32;;;5.88;;
45366;SDS011;31100;55.848;37.636;2023-02-28T00:08:49;10.63;;;5.60;;
45366;SDS011;31100;55.848;37.636;2023-02-28T00:11:15;14.00;;;7.10;;
45366;SDS011;31100;55.848;37.636;2023-02-28T00:13:42;12.45;;;6.30;;
45366;SDS011;31100;55.848;37.636;2023-02-28T00:16:12;13.88;;;6.32;;
45366;SDS011;31100;55.848;37.636;2023-02-28T00:18:40;13.82;;;7.25;;
45366;SDS011;31100;55.848;37.636;2023-02-28T00:21:06;12.27;;;6.25;;
45366;SDS011;31100;55.848;37.636;2023-02-28T00:23:32;12.43;;;5.93;;
45366;SDS011;31100;55.848;37.636;2023-02-28T00:25:58;12.23;;;6.07;;
45366;SDS011;31100;55.848;37.636;2023-02-28T00:28:24;13.05;;;6.32;;
45366;SDS011;31100;55.848;37.636;2023-02-28T00:30:50;9.45;;;5.80;;
45366;SDS011;31100;55.848;37.636;2023-02-28T00:33:16;9.65;;;5.55;;
45366;SDS011;31100;55.848;37.636;2023-02-28T00:35:42;15.68;;;7.00;;
45366;SDS011;31100;55.848;37.636;2023-02-28T00:38:07;9.85;;;5.93;;
45366;SDS011;31100;55.848;37.636;2023-02-28T00:40:33;12.10;;;6.18;;
45366;SDS011;31100;55.848;37.636;2023-02-28T00:42:58;12.35;;;6.70;;
45366;SDS011;31100;55.848;37.636;2023-02-28T00:45:24;11.23;;;6.45;;
45366;SDS011;31100;55.848;37.636;2023-02-28T00:47:50;12.95;;;6.03;;
45366;SDS011;31100;55.848;37.636;2023-02-28T00:50:16;11.50;;;6.30;;
45366;SDS011;31100;55.848;37.636;2023-02-28T00:52:43;12.23;;;6.57;;
45366;SDS011;31100;55.848;37.636;2023-02-28T00:55:09;11.57;;;6.50;;
45366;SDS011;31100;55.848;37.636;2023-02-28T00:57:34;12.70;;;6.55;;
45366;SDS011;31100;55.848;37.636;2023-02-28T01:00:00;12.60;;;6.47;;
45366;SDS011;31100;55.848;37.636;2023-02-28T01:02:26;13.75;;;6.43;;
45366;SDS011;31100;55.848;37.636;2023-02-28T01:04:52;11.98;;;6.40;;
45366;SDS011;31100;55.848;37.636;2023-02-28T01:07:17;11.95;;;6.78;;
45366;SDS011;31100;55.848;37.636;2023-02-28T01:09:43;15.18;;;7.53;;
45366;SDS011;31100;55.848;37.636;2023-02-28T01:12:08;11.15;;;6.07;;
45366;SDS011;31100;55.848;37.636;2023-02-28T01:14:34;13.13;;;6.07;;
45366;SDS011;31100;55.848;37.636;2023-02-28T01:17:00;11.75;;;6.53;;
45366;SDS011;31100;55.848;37.636;2023-02-28T01:19:26;10.70;;;5.70;;
45366;SDS011;31100;55.848;37.636;2023-02-28T01:21:52;12.27;;;6.40;;
45366;SDS011;31100;55.848;37.636;2023-02-28T01:24:17;11.73;;;5.88;;
45366;SDS011;31100;55.848;37.636;2023-02-28T01:26:43;11.95;;;6.20;;
45366;SDS011;31100;55.848;37.636;2023-02-28T01:29:08;9.88;;;5.47;;
45366;SDS011;31100;55.848;37.636;2023-02-28T01:31:34;12.15;;;6.35;;
45366;SDS011;31100;55.848;37.636;2023-02-28T01:34:00;11.30;;;5.75;;
45366;SDS011;31100;55.848;37.636;2023-02-28T01:36:26;12.20;;;6.55;;
45366;SDS011;31100;55.848;37.636;2023-02-28T01:38:51;12.80;;;5.68;;
45366;SDS011;31100;55.848;37.636;2023-02-28T01:41:19;9.55;;;5.45;;
45366;SDS011;31100;55.848;37.636;2023-02-28T01:46:12;10.45;;;5.50;;
45366;SDS011;31100;55.848;37.636;2023-02-28T01:48:39;10.93;;;6.53;;
45366;SDS011;31100;55.848;37.636;2023-02-28T01:51:08;10.02;;;5.65;;
45366;SDS011;31100;55.848;37.636;2023-02-28T01:53:39;11.63;;;5.40;;
45366;SDS011;31100;55.848;37.636;2023-02-28T01:56:12;10.35;;;5.65;;
45366;SDS011;31100;55.848;37.636;2023-02-28T01:58:46;13.20;;;6.13;;
45366;SDS011;31100;55.848;37.636;2023-02-28T02:01:12;11.73;;;5.70;;
45366;SDS011;31100;55.848;37.636;2023-02-28T02:03:47;11.68;;;5.97;;
45366;SDS011;31100;55.848;37.636;2023-02-28T02:06:20;11.00;;;6.38;;
45366;SDS011;31100;55.848;37.636;2023-02-28T02:09:06;12.27;;;6.50;;
45366;SDS011;31100;55.848;37.636;2023-02-28T02:11:32;9.68;;;5.50;;
45366;SDS011;31100;55.848;37.636;2023-02-28T02:27:26;12.00;;;5.93;;
45366;SDS011;31100;55.848;37.636;2023-02-28T02:40:50;10.80;;;6.00;;
45366;SDS011;31100;55.848;37.636;2023-02-28T02:43:51;11.10;;;5.55;;
45366;SDS011;31100;55.848;37.636;2023-02-28T02:46:39;10.05;;;5.13;;
45366;SDS011;31100;55.848;37.636;2023-02-28T02:49:09;10.07;;;5.10;;
45366;SDS011;31100;55.848;37.636;2023-02-28T02:51:38;9.77;;;4.97;;
45366;SDS011;31100;55.848;37.636;2023-02-28T02:54:15;9.38;;;4.85;;
45366;SDS011;31100;55.848;37.636;2023-02-28T02:56:45;8.57;;;4.70;;
45366;SDS011;31100;55.848;37.636;2023-02-28T02:59:13;9.38;;;5.00;;
45366;SDS011;31100;55.848;37.636;2023-02-28T03:01:46;8.35;;;4.72;;
45366;SDS011;31100;55.848;37.636;2023-02-28T03:04:16;9.63;;;4.90;;
45366;SDS011;31100;55.848;37.636;2023-02-28T03:06:43;8.15;;;4.57;;
45366;SDS011;31100;55.848;37.636;2023-02-28T03:09:08;8.98;;;4.30;;
45366;SDS011;31100;55.848;37.636;2023-02-28T03:11:34;9.35;;;5.30;;
45366;SDS011;31100;55.848;37.636;2023-02-28T03:21:52;8.13;;;4.00;;
45366;SDS011;31100;55.848;37.636;2023-02-28T03:24:45;7.45;;;4.50;;
45366;SDS011;31100;55.848;37.636;2023-02-28T03:30:22;8.30;;;4.22;;
45366;SDS011;31100;55.848;37.636;2023-02-28T03:32:56;9.68;;;4.22;;
45366;SDS011;31100;55.848;37.636;2023-02-28T03:35:34;8.73;;;4.45;;
45366;SDS011;31100;55.848;37.636;2023-02-28T03:38:11;9.30;;;4.72;;
45366;SDS011;31100;55.848;37.636;2023-02-28T03:40:42;8.13;;;4.55;;
45366;SDS011;31100;55.848;37.636;2023-02-28T03:43:12;10.00;;;5.55;;
45366;SDS011;31100;55.848;37.636;2023-02-28T03:45:41;9.40;;;5.10;;
45366;SDS011;31100;55.848;37.636;2023-02-28T03:50:41;10.10;;;5.28;;
45366;SDS011;31100;55.848;37.636;2023-02-28T03:53:13;9.07;;;4.75;;
45366;SDS011;31100;55.848;37.636;2023-02-28T03:55:48;10.45;;;5.32;;
45366;SDS011;31100;55.848;37.636;2023-02-28T03:58:26;8.80;;;4.63;;
45366;SDS011;31100;55.848;37.636;2023-02-28T04:01:16;9.48;;;5.28;;
45366;SDS011;31100;55.848;37.636;2023-02-28T04:03:49;11.43;;;5.70;;
45366;SDS011;31100;55.848;37.636;2023-02-28T04:06:16;11.07;;;5.30;;
45366;SDS011;31100;55.848;37.636;2023-02-28T04:08:43;10.93;;;5.00;;
45366;SDS011;31100;55.848;37.636;2023-02-28T04:11:20;11.15;;;5.60;;
45366;SDS011;31100;55.848;37.636;2023-02-28T04:13:52;10.07;;;5.53;;
45366;SDS011;31100;55.848;37.636;2023-02-28T04:16:18;9.68;;;4.95;;
45366;SDS011;31100;55.848;37.636;2023-02-28T04:18:43;10.98;;;5.38;;
45366;SDS011;31100;55.848;37.636;2023-02-28T04:21:09;9.48;;;4.47;;
45366;SDS011;31100;55.848;37.636;2023-02-28T04:23:36;9.57;;;4.78;;
45366;SDS011;31100;55.848;37.636;2023-02-28T04:26:01;10.25;;;4.95;;
45366;SDS011;31100;55.848;37.636;2023-02-28T04:28:27;8.65;;;4.60;;
45366;SDS011;31100;55.848;37.636;2023-02-28T04:30:56;10.60;;;4.40;;
45366;SDS011;31100;55.848;37.636;2023-02-28T04:33:27;8.60;;;4.78;;
45366;SDS011;31100;55.848;37.636;2023-02-28T04:36:06;7.22;;;3.92;;
45366;SDS011;31100;55.848;37.636;2023-02-28T04:38:34;8.45;;;4.05;;
45366;SDS011;31100;55.848;37.636;2023-02-28T04:41:03;8.20;;;4.75;;
45366;SDS011;31100;55.848;37.636;2023-02-28T04:43:29;8.70;;;4.20;;
45366;SDS011;31100;55.848;37.636;2023-02-28T04:45:56;8.68;;;4.45;;
45366;SDS011;31100;55.848;37.636;2023-02-28T04:48:26;8.02;;;4.95;;
45366;SDS011;31100;55.848;37.636;2023-02-28T04:50:53;8.90;;;4.32;;
45366;SDS011;31100;55.848;37.636;2023-02-28T04:53:19;7.55;;;4.30;;
45366;SDS011;31100;55.848;37.636;2023-02-28T04:55:45;9.02;;;4.80;;
45366;SDS011;31100;55.848;37.636;2023-02-28T04:58:12;7.03;;;4.47;;
45366;SDS011;31100;55.848;37.636;2023-02-28T05:00:38;7.13;;;4.13;;
45366;SDS011;31100;55.848;37.636;2023-02-28T05:03:03;8.35;;;4.43;;
45366;SDS011;31100;55.848;37.636;2023-02-28T05:05:29;6.30;;;3.80;;
45366;SDS011;31100;55.848;37.636;2023-02-28T05:07:55;5.57;;;3.45;;
45366;SDS011;31100;55.848;37.636;2023-02-28T05:10:24;8.32;;;4.35;;
45366;SDS011;31100;55.848;37.636;2023-02-28T05:12:49;6.72;;;3.63;;
45366;SDS011;31100;55.848;37.636;2023-02-28T05:15:15;7.75;;;3.90;;
45366;SDS011;31100;55.848;37.636;2023-02-28T05:17:42;6.97;;;4.00;;
45366;SDS011;31100;55.848;37.636;2023-02-28T05:20:08;7.35;;;3.40;;
45366;SDS011;31100;55.848;37.636;2023-02-28T05:22:36;6.95;;;3.75;;
45366;SDS011;31100;55.848;37.636;2023-02-28T05:25:03;7.50;;;3.70;;
45366;SDS011;31100;55.848;37.636;2023-02-28T05:27:29;7.88;;;4.13;;
45366;SDS011;31100;55.848;37.636;2023-02-28T05:29:55;6.65;;;3.35;;
45366;SDS011;31100;55.848;37.636;2023-02-28T05:32:21;6.97;;;3.70;;
45366;SDS011;31100;55.848;37.636;2023-02-28T05:34:47;7.22;;;3.95;;
45366;SDS011;31100;55.848;37.636;2023-02-28T05:37:13;6.32;;;3.80;;
45366;SDS011;31100;55.848;37.636;2023-02-28T05:39:39;6.07;;;3.80;;
45366;SDS011;31100;55.848;37.636;2023-02-28T05:42:05;5.47;;;3.10;;
45366;SDS011;31100;55.848;37.636;2023-02-28T05:44:31;6.57;;;3.83;;
45366;SDS011;31100;55.848;37.636;2023-02-28T05:46:57;6.03;;;3.72;;
45366;SDS011;31100;55.848;37.636;2023-02-28T05:49:22;6.78;;;3.70;;
45366;SDS011;31100;55.848;37.636;2023-02-28T05:51:48;7.57;;;3.63;;
45366;SDS011;31100;55.848;37.636;2023-02-28T05:54:13;5.57;;;3.00;;
45366;SDS011;31100;55.848;37.636;2023-02-28T05:56:39;7.70;;;3.70;;
45366;SDS011;31100;55.848;37.636;2023-02-28T05:59:06;7.38;;;3.50;;
45366;SDS011;31100;55.848;37.636;2023-02-28T06:01:44;6.28;;;3.45;;
45366;SDS011;31100;55.848;37.636;2023-02-28T06:04:14;5.55;;;3.35;;
45366;SDS011;31100;55.848;37.636;2023-02-28T06:06:45;7.50;;;4.22;;
45366;SDS011;31100;55.848;37.636;2023-02-28T06:09:11;5.97;;;3.40;;
45366;SDS011;31100;55.848;37.636;2023-02-28T06:11:36;7.18;;;4.38;;
45366;SDS011;31100;55.848;37.636;2023-02-28T06:14:03;8.52;;;3.97;;
45366;SDS011;31100;55.848;37.636;2023-02-28T06:16:29;7.90;;;4.00;;
45366;SDS011;31100;55.848;37.636;2023-02-28T06:18:59;6.15;;;3.83;;
45366;SDS011;31100;55.848;37.636;2023-02-28T06:21:26;6.93;;;3.33;;
45366;SDS011;31100;55.848;37.636;2023-02-28T06:23:53;6.18;;;3.85;;
45366;SDS011;31100;55.848;37.636;2023-02-28T06:26:19;5.10;;;2.97;;
45366;SDS011;31100;55.848;37.636;2023-02-28T06:28:45;6.10;;;3.55;;
45366;SDS011;31100;55.848;37.636;2023-02-28T06:31:12;6.10;;;3.63;;
45366;SDS011;31100;55.848;37.636;2023-02-28T06:33:40;6.22;;;3.22;;
45366;SDS011;31100;55.848;37.636;2023-02-28T06:36:06;6.18;;;3.85;;
45366;SDS011;31100;55.848;37.636;2023-02-28T06:38:32;5.30;;;3.00;;
45366;SDS011;31100;55.848;37.636;2023-02-28T06:40:59;5.38;;;3.25;;
45366;SDS011;31100;55.848;37.636;2023-02-28T06:43:27;5.95;;;3.40;;
45366;SDS011;31100;55.848;37.636;2023-02-28T06:46:00;4.40;;;2.50;;
45366;SDS011;31100;55.848;37.636;2023-02-28T06:48:27;6.93;;;3.80;;
45366;SDS011;31100;55.848;37.636;2023-02-28T06:51:00;6.63;;;3.45;;
45366;SDS011;31100;55.848;37.636;2023-02-28T06:53:33;6.18;;;3.50;;
45366;SDS011;31100;55.848;37.636;2023-02-28T06:55:59;6.13;;;3.58;;
45366;SDS011;31100;55.848;37.636;2023-02-28T06:58:25;6.13;;;2.75;;
45366;SDS011;31100;55.848;37.636;2023-02-28T07:00:51;5.65;;;3.20;;
45366;SDS011;31100;55.848;37.636;2023-02-28T07:03:17;5.57;;;3.40;;
45366;SDS011;31100;55.848;37.636;2023-02-28T07:05:43;6.47;;;3.25;;
45366;SDS011;31100;55.848;37.636;2023-02-28T07:08:10;7.00;;;3.20;;
45366;SDS011;31100;55.848;37.636;2023-02-28T07:10:39;5.78;;;3.40;;
45366;SDS011;31100;55.848;37.636;2023-02-28T07:13:05;5.93;;;3.53;;
45366;SDS011;31100;55.848;37.636;2023-02-28T07:15:31;6.78;;;3.35;;
45366;SDS011;31100;55.848;37.636;2023-02-28T07:17:56;6.13;;;3.10;;
45366;SDS011;31100;55.848;37.636;2023-02-28T07:20:22;9.07;;;3.85;;
45366;SDS011;31100;55.848;37.636;2023-02-28T07:22:49;6.32;;;3.58;;
45366;SDS011;31100;55.848;37.636;2023-02-28T07:25:25;6.55;;;3.60;;
45366;SDS011;31100;55.848;37.636;2023-02-28T07:27:52;5.90;;;3.40;;
45366;SDS011;31100;55.848;37.636;2023-02-28T07:30:18;6.57;;;3.38;;
45366;SDS011;31100;55.848;37.636;2023-02-28T07:32:44;6.50;;;3.80;;
45366;SDS011;31100;55.848;37.636;2023-02-28T07:35:10;5.80;;;3.22;;
45366;SDS011;31100;55.848;37.636;2023-02-28T07:37:36;6.97;;;3.60;;
45366;SDS011;31100;55.848;37.636;2023-02-28T07:40:05;5.40;;;3.03;;
45366;SDS011;31100;55.848;37.636;2023-02-28T07:42:35;4.97;;;2.90;;
45366;SDS011;31100;55.848;37.636;2023-02-28T07:45:01;8.20;;;4.53;;
45366;SDS011;31100;55.848;37.636;2023-02-28T07:47:29;6.88;;;4.20;;
45366;SDS011;31100;55.848;37.636;2023-02-28T07:49:55;5.43;;;3.13;;
45366;SDS011;31100;55.848;37.636;2023-02-28T07:52:21;7.72;;;3.70;;
45366;SDS011;31100;55.848;37.636;2023-02-28T07:54:48;6.82;;;3.25;;
45366;SDS011;31100;55.848;37.636;2023-02-28T07:57:14;6.25;;;3.67;;
45366;SDS011;31100;55.848;37.636;2023-02-28T07:59:41;6.78;;;3.60;;
45366;SDS011;31100;55.848;37.636;2023-02-28T08:02:06;6.20;;;3.45;;
45366;SDS011;31100;55.848;37.636;2023-02-28T08:04:32;8.05;;;3.92;;
45366;SDS011;31100;55.848;37.636;2023-02-28T08:06:58;5.88;;;2.78;;
45366;SDS011;31100;55.848;37.636;2023-02-28T08:09:24;5.68;;;3.30;;
45366;SDS011;31100;55.848;37.636;2023-02-28T08:11:49;8.82;;;4.13;;
45366;SDS011;31100;55.848;37.636;2023-02-28T08:14:15;7.47;;;4.07;;
45366;SDS011;31100;55.848;37.636;2023-02-28T08:16:41;9.45;;;3.67;;
45366;SDS011;31100;55.848;37.636;2023-02-28T08:19:08;6.43;;;3.83;;
45366;SDS011;31100;55.848;37.636;2023-02-28T08:21:34;5.90;;;3.10;;
45366;SDS011;31100;55.848;37.636;2023-02-28T08:23:59;6.45;;;3.63;;
45366;SDS011;31100;55.848;37.636;2023-02-28T08:26:25;5.45;;;3.40;;
45366;SDS011;31100;55.848;37.636;2023-02-28T08:28:50;6.50;;;3.70;;
45366;SDS011;31100;55.848;37.636;2023-02-28T08:31:17;6.43;;;3.50;;
45366;SDS011;31100;55.848;37.636;2023-02-28T08:33:43;6.90;;;3.33;;
45366;SDS011;31100;55.848;37.636;2023-02-28T08:36:10;6.95;;;3.35;;
45366;SDS011;31100;55.848;37.636;2023-02-28T08:38:35;7.65;;;3.65;;
45366;SDS011;31100;55.848;37.636;2023-02-28T08:41:03;8.15;;;3.80;;
45366;SDS011;31100;55.848;37.636;2023-02-28T08:43:32;10.15;;;4.40;;
45366;SDS011;31100;55.848;37.636;2023-02-28T08:45:58;5.70;;;3.35;;
45366;SDS011;31100;55.848;37.636;2023-02-28T08:48:24;9.15;;;3.47;;
45366;SDS011;31100;55.848;37.636;2023-02-28T08:50:54;5.95;;;3.47;;
45366;SDS011;31100;55.848;37.636;2023-02-28T08:53:23;10.02;;;3.97;;
45366;SDS011;31100;55.848;37.636;2023-02-28T08:55:55;8.82;;;3.55;;
45366;SDS011;31100;55.848;37.636;2023-02-28T08:58:28;8.85;;;3.55;;
45366;SDS011;31100;55.848;37.636;2023-02-28T09:00:54;9.95;;;3.55;;
45366;SDS011;31100;55.848;37.636;2023-02-28T09:03:21;8.05;;;3.75;;
45366;SDS011;31100;55.848;37.636;2023-02-28T09:05:54;8.57;;;3.70;;
45366;SDS011;31100;55.848;37.636;2023-02-28T09:10:46;7.68;;;3.67;;
45366;SDS011;31100;55.848;37.636;2023-02-28T09:13:12;5.25;;;2.60;;
45366;SDS011;31100;55.848;37.636;2023-02-28T09:15:38;7.13;;;3.50;;
45366;SDS011;31100;55.848;37.636;2023-02-28T09:18:04;6.18;;;3.53;;
45366;SDS011;31100;55.848;37.636;2023-02-28T09:20:29;5.75;;;3.50;;
45366;SDS011;31100;55.848;37.636;2023-02-28T09:22:55;7.93;;;3.40;;
45366;SDS011;31100;55.848;37.636;2023-02-28T09:25:20;6.60;;;3.70;;
45366;SDS011;31100;55.848;37.636;2023-02-28T09:27:46;6.63;;;2.90;;
45366;SDS011;31100;55.848;37.636;2023-02-28T09:30:11;7.13;;;3.50;;
45366;SDS011;31100;55.848;37.636;2023-02-28T09:32:37;6.78;;;3.10;;
45366;SDS011;31100;55.848;37.636;2023-02-28T09:35:03;6.75;;;2.83;;
45366;SDS011;31100;55.848;37.636;2023-02-28T09:37:29;6.78;;;3.13;;
45366;SDS011;31100;55.848;37.636;2023-02-28T09:39:56;6.28;;;3.17;;
45366;SDS011;31100;55.848;37.636;2023-02-28T09:42:25;5.97;;;3.00;;
45366;SDS011;31100;55.848;37.636;2023-02-28T09:44:55;6.65;;;3.78;;
45366;SDS011;31100;55.848;37.636;2023-02-28T09:47:32;7.65;;;3.65;;
45366;SDS011;31100;55.848;37.636;2023-02-28T09:50:06;6.60;;;3.13;;
45366;SDS011;31100;55.848;37.636;2023-02-28T09:52:41;5.93;;;3.40;;
45366;SDS011;31100;55.848;37.636;2023-02-28T09:58:16;7.20;;;3.10;;
45366;SDS011;31100;55.848;37.636;2023-02-28T10:00:43;4.45;;;2.60;;
45366;SDS011;31100;55.848;37.636;2023-02-28T10:06:02;7.82;;;3.35;;
45366;SDS011;31100;55.848;37.636;2023-02-28T10:08:37;6.25;;;3.30;;
45366;SDS011;31100;55.848;37.636;2023-02-28T10:11:09;5.75;;;3.38;;
45366;SDS011;31100;55.848;37.636;2023-02-28T10:13:39;5.50;;;3.22;;
45366;SDS011;31100;55.848;37.636;2023-02-28T10:16:39;6.22;;;3.42;;
45366;SDS011;31100;55.848;37.636;2023-02-28T10:19:17;5.82;;;2.65;;
45366;SDS011;31100;55.848;37.636;2023-02-28T10:21:57;4.63;;;2.80;;
45366;SDS011;31100;55.848;37.636;2023-02-28T10:24:29;5.30;;;3.17;;
45366;SDS011;31100;55.848;37.636;2023-02-28T10:27:15;7.03;;;3.38;;
45366;SDS011;31100;55.848;37.636;2023-02-28T10:29:44;5.68;;;3.33;;
45366;SDS011;31100;55.848;37.636;2023-02-28T10:32:15;7.57;;;2.97;;
45366;SDS011;31100;55.848;37.636;2023-02-28T10:34:43;5.78;;;3.20;;
45366;SDS011;31100;55.848;37.636;2023-02-28T10:37:10;7.50;;;3.00;;
45366;SDS011;31100;55.848;37.636;2023-02-28T10:39:37;6.28;;;3.42;;
45366;SDS011;31100;55.848;37.636;2023-02-28T10:42:18;5.20;;;3.15;;
45366;SDS011;31100;55.848;37.636;2023-02-28T10:47:33;7.13;;;3.45;;
45366;SDS011;31100;55.848;37.636;2023-02-28T10:49:59;5.90;;;2.75;;
45366;SDS011;31100;55.848;37.636;2023-02-28T10:52:39;4.32;;;2.72;;
45366;SDS011;31100;55.848;37.636;2023-02-28T10:55:18;6.45;;;3.25;;
45366;SDS011;31100;55.848;37.636;2023-02-28T10:57:46;5.22;;;3.30;;
45366;SDS011;31100;55.848;37.636;2023-02-28T11:00:17;6.68;;;3.95;;
45366;SDS011;31100;55.848;37.636;2023-02-28T11:02:44;11.15;;;3.85;;
45366;SDS011;31100;55.848;37.636;2023-02-28T11:07:56;7.80;;;4.00;;
45366;SDS011;31100;55.848;37.636;2023-02-28T11:10:26;6.13;;;3.43;;
45366;SDS011;31100;55.848;37.636;2023-02-28T11:12:54;8.40;;;4.10;;
45366;SDS011;31100;55.848;37.636;2023-02-28T11:15:26;6.90;;;3.88;;
45366;SDS011;31100;55.848;37.636;2023-02-28T11:20:31;7.63;;;4.03;;
45366;SDS011;31100;55.848;37.636;2023-02-28T11:22:58;7.47;;;3.70;;
45366;SDS011;31100;55.848;37.636;2023-02-28T11:25:26;5.30;;;3.17;;
45366;SDS011;31100;55.848;37.636;2023-02-28T11:27:56;6.88;;;4.15;;
45366;SDS011;31100;55.848;37.636;2023-02-28T11:30:35;7.95;;;4.03;;
45366;SDS011;31100;55.848;37.636;2023-02-28T11:35:50;7.75;;;3.97;;
45366;SDS011;31100;55.848;37.636;2023-02-28T11:38:17;10.00;;;3.83;;
45366;SDS011;31100;55.848;37.636;2023-02-28T11:49:03;6.78;;;4.18;;
45366;SDS011;31100;55.848;37.636;2023-02-28T11:54:21;7.57;;;3.72;;
45366;SDS011;31100;55.848;37.636;2023-02-28T11:57:03;7.00;;;3.90;;
45366;SDS011;31100;55.848;37.636;2023-02-28T12:05:50;8.95;;;4.45;;
45366;SDS011;31100;55.848;37.636;2023-02-28T12:14:12;6.65;;;3.72;;
45366;SDS011;31100;55.848;37.636;2023-02-28T12:17:16;7.35;;;4.30;;
45366;SDS011;31100;55.848;37.636;2023-02-28T12:28:12;5.77;;;3.27;;
45366;SDS011;31100;55.848;37.636;2023-02-28T12:30:46;6.13;;;3.67;;
45366;SDS011;31100;55.848;37.636;2023-02-28T12:33:18;6.18;;;3.72;;
45366;SDS011;31100;55.848;37.636;2023-02-28T12:35:57;5.45;;;2.85;;
45366;SDS011;31100;55.848;37.636;2023-02-28T12:38:29;7.40;;;3.40;;
45366;SDS011;31100;55.848;37.636;2023-02-28T12:41:00;5.82;;;3.33;;
45366;SDS011;31100;55.848;37.636;2023-02-28T12:43:34;6.28;;;3.60;;
45366;SDS011;31100;55.848;37.636;2023-02-28T12:46:08;7.90;;;3.60;;
45366;SDS011;31100;55.848;37.636;2023-02-28T12:51:09;7.45;;;3.50;;
45366;SDS011;31100;55.848;37.636;2023-02-28T12:53:45;6.25;;;3.72;;
45366;SDS011;31100;55.848;37.636;2023-02-28T13:11:03;5.68;;;3.03;;
45366;SDS011;31100;55.848;37.636;2023-02-28T13:13:29;5.60;;;3.42;;
45366;SDS011;31100;55.848;37.636;2023-02-28T13:16:06;6.32;;;3.75;;
45366;SDS011;31100;55.848;37.636;2023-02-28T13:18:36;6.05;;;3.55;;
45366;SDS011;31100;55.848;37.636;2023-02-28T13:21:07;6.95;;;3.53;;
45366;SDS011;31100;55.848;37.636;2023-02-28T13:26:05;5.93;;;3.42;;
45366;SDS011;31100;55.848;37.636;2023-02-28T13:31:15;6.70;;;3.60;;
45366;SDS011;31100;55.848;37.636;2023-02-28T13:38:43;7.75;;;4.35;;
45366;SDS011;31100;55.848;37.636;2023-02-28T13:59:43;8.32;;;3.60;;
45366;SDS011;31100;55.848;37.636;2023-02-28T14:02:20;7.85;;;3.90;;
45366;SDS011;31100;55.848;37.636;2023-02-28T14:05:00;7.18;;;3.78;;
45366;SDS011;31100;55.848;37.636;2023-02-28T14:07:33;7.28;;;3.53;;
45366;SDS011;31100;55.848;37.636;2023-02-28T14:10:04;5.38;;;3.30;;
45366;SDS011;31100;55.848;37.636;2023-02-28T14:15:43;6.10;;;3.38;;
45366;SDS011;31100;55.848;37.636;2023-02-28T14:18:14;5.75;;;3.30;;
45366;SDS011;31100;55.848;37.636;2023-02-28T14:20:43;4.60;;;2.45;;
45366;SDS011;31100;55.848;37.636;2023-02-28T14:23:12;6.93;;;3.15;;
45366;SDS011;31100;55.848;37.636;2023-02-28T14:26:03;4.57;;;2.55;;
45366;SDS011;31100;55.848;37.636;2023-02-28T14:28:55;5.75;;;3.17;;
45366;SDS011;31100;55.848;37.636;2023-02-28T14:31:48;6.60;;;3.40;;
45366;SDS011;31100;55.848;37.636;2023-02-28T14:34:35;5.70;;;3.95;;
45366;SDS011;31100;55.848;37.636;2023-02-28T14:37:32;6.90;;;4.00;;
45366;SDS011;31100;55.848;37.636;2023-02-28T14:39:59;5.57;;;3.35;;
45366;SDS011;31100;55.848;37.636;2023-02-28T14:42:30;6.47;;;3.90;;
45366;SDS011;31100;55.848;37.636;2023-02-28T14:45:02;5.95;;;3.50;;
45366;SDS011;31100;55.848;37.636;2023-02-28T14:47:33;5.05;;;3.20;;
45366;SDS011;31100;55.848;37.636;2023-02-28T14:50:00;8.25;;;3.75;;
45366;SDS011;31100;55.848;37.636;2023-02-28T14:52:30;6.07;;;3.65;;
45366;SDS011;31100;55.848;37.636;2023-02-28T14:55:04;6.22;;;3.60;;
45366;SDS011;31100;55.848;37.636;2023-02-28T14:57:34;9.20;;;4.63;;
45366;SDS011;31100;55.848;37.636;2023-02-28T15:00:02;7.75;;;3.50;;
45366;SDS011;31100;55.848;37.636;2023-02-28T15:02:33;5.20;;;2.97;;
45366;SDS011;31100;55.848;37.636;2023-02-28T15:05:00;5.47;;;3.08;;
45366;SDS011;31100;55.848;37.636;2023-02-28T15:07:36;5.15;;;2.83;;
45366;SDS011;31100;55.848;37.636;2023-02-28T15:12:33;4.70;;;3.10;;
45366;SDS011;31100;55.848;37.636;2023-02-28T15:14:59;5.57;;;3.35;;
45366;SDS011;31100;55.848;37.636;2023-02-28T15:17:26;6.13;;;3.33;;
45366;SDS011;31100;55.848;37.636;2023-02-28T15:19:51;6.00;;;3.25;;
45366;SDS011;31100;55.848;37.636;2023-02-28T15:22:19;4.97;;;2.67;;
45366;SDS011;31100;55.848;37.636;2023-02-28T15:24:50;4.00;;;2.17;;
45366;SDS011;31100;55.848;37.636;2023-02-28T15:27:21;4.50;;;2.70;;
45366;SDS011;31100;55.848;37.636;2023-02-28T15:29:49;5.60;;;3.25;;
45366;SDS011;31100;55.848;37.636;2023-02-28T15:32:29;5.30;;;2.92;;
45366;SDS011;31100;55.848;37.636;2023-02-28T15:34:56;5.18;;;2.50;;
45366;SDS011;31100;55.848;37.636;2023-02-28T15:39:51;6.40;;;2.92;;
45366;SDS011;31100;55.848;37.636;2023-02-28T15:42:19;5.70;;;3.40;;
45366;SDS011;31100;55.848;37.636;2023-02-28T15:44:45;6.45;;;3.42;;
45366;SDS011;31100;55.848;37.636;2023-02-28T15:55:08;5.32;;;3.22;;
45366;SDS011;31100;55.848;37.636;2023-02-28T15:57:38;5.22;;;3.08;;
45366;SDS011;31100;55.848;37.636;2023-02-28T16:00:04;7.15;;;3.10;;
45366;SDS011;31100;55.848;37.636;2023-02-28T16:02:32;5.22;;;3.25;;
45366;SDS011;31100;55.848;37.636;2023-02-28T16:07:39;5.80;;;3.15;;
45366;SDS011;31100;55.848;37.636;2023-02-28T16:10:07;7.88;;;3.90;;
45366;SDS011;31100;55.848;37.636;2023-02-28T16:12:35;5.30;;;2.95;;
45366;SDS011;31100;55.848;37.636;2023-02-28T16:15:03;5.43;;;3.00;;
45366;SDS011;31100;55.848;37.636;2023-02-28T16:17:33;5.85;;;3.28;;
45366;SDS011;31100;55.848;37.636;2023-02-28T16:20:00;5.45;;;3.35;;
45366;SDS011;31100;55.848;37.636;2023-02-28T16:22:26;6.00;;;3.30;;
45366;SDS011;31100;55.848;37.636;2023-02-28T16:24:52;5.72;;;3.05;;
45366;SDS011;31100;55.848;37.636;2023-02-28T16:27:35;4.07;;;2.85;;
45366;SDS011;31100;55.848;37.636;2023-02-28T16:30:02;6.35;;;2.65;;
45366;SDS011;31100;55.848;37.636;2023-02-28T16:32:29;5.63;;;3.30;;
45366;SDS011;31100;55.848;37.636;2023-02-28T16:34:55;5.70;;;3.10;;
45366;SDS011;31100;55.848;37.636;2023-02-28T16:37:20;5.82;;;3.88;;
45366;SDS011;31100;55.848;37.636;2023-02-28T16:39:46;5.88;;;3.70;;
45366;SDS011;31100;55.848;37.636;2023-02-28T16:42:15;6.97;;;3.50;;
45366;SDS011;31100;55.848;37.636;2023-02-28T16:44:54;6.45;;;3.47;;
45366;SDS011;31100;55.848;37.636;2023-02-28T16:47:19;6.65;;;3.38;;
45366;SDS011;31100;55.848;37.636;2023-02-28T16:49:45;6.72;;;3.47;;
45366;SDS011;31100;55.848;37.636;2023-02-28T16:52:13;7.78;;;2.97;;
45366;SDS011;31100;55.848;37.636;2023-02-28T16:54:39;5.82;;;3.30;;
45366;SDS011;31100;55.848;37.636;2023-02-28T16:57:06;5.93;;;2.97;;
45366;SDS011;31100;55.848;37.636;2023-02-28T16:59:33;5.72;;;3.35;;
45366;SDS011;31100;55.848;37.636;2023-02-28T17:01:59;5.72;;;3.28;;
45366;SDS011;31100;55.848;37.636;2023-02-28T17:04:25;4.55;;;2.55;;
45366;SDS011;31100;55.848;37.636;2023-02-28T17:06:51;5.68;;;2.90;;
45366;SDS011;31100;55.848;37.636;2023-02-28T17:09:18;5.38;;;3.47;;
45366;SDS011;31100;55.848;37.636;2023-02-28T17:11:45;4.85;;;2.72;;
45366;SDS011;31100;55.848;37.636;2023-02-28T17:14:12;5.47;;;3.80;;
45366;SDS011;31100;55.848;37.636;2023-02-28T17:16:38;5.15;;;3.00;;
45366;SDS011;31100;55.848;37.636;2023-02-28T17:19:09;7.53;;;3.78;;